sensor_id;sensor_type;location;lat;lon;timestamp;pressure;altitude;pressure_sealevel;temperature
79148;BMP280;68562;51.600;6.524;2023-11-21T00:00:00;1009.2;;;14.1
79148;BMP280;68562;51.600;6.524;2023-11-21T00:05:00;1009.3;;;14.1
79148;BMP280;68562;51.600;6.524;2023-11-21T00:10:00;1009.3;;;14.2
79148;BMP280;68562;51.600;6.524;2023-11-21T00:15:00;1009.4;;;14.2
79148;BMP280;68562;51.600;6.524;2023-11-21T00:20:00;1009.4;;;14.3
79148;BMP280;68562;51.600;6.524;2023-11-21T00:25:00;1009.3;;;14.3
79148;BMP280;68562;51.600;6.524;2023-11-21T00:30:00;1009.3;;;14.3
79148;BMP280;68562;51.600;6.524;2023-11-21T00:35:00;1009.3;;;14.2
79148;BMP280;68562;51.600;6.524;2023-11-21T00:40:00;1009.4;;;14.3
79148;BMP280;68562;51.600;6.524;2023-11-21T00:45:00;1009.4;;;14.2
79148;BMP280;68562;51.600;6.524;2023-11-21T00:50:00;1009.5;;;14.3
79148;BMP280;68562;51.600;6.524;2023-11-21T00:55:00;1009.5;;;14.2
79148;BMP280;68562;51.600;6.524;2023-11-21T01:00:00;1009.5;;;14.3
79148;BMP280;68562;51.600;6.524;2023-11-21T01:05:00;1009.6;;;14.2
79148;BMP280;68562;51.600;6.524;2023-11-21T01:10:00;1009.7;;;14.3
79148;BMP280;68562;51.600;6.524;2023-11-21T01:15:00;1009.7;;;14.2
79148;BMP280;68562;51.600;6.524;2023-11-21T01:20:00;1009.7;;;14.3
79148;BMP280;68562;51.600;6.524;2023-11-21T01:25:00;1009.8;;;14.2
79148;BMP280;68562;51.600;6.524;2023-11-21T01:30:00;1009.8;;;14.3
79148;BMP280;68562;51.600;6.524;2023-11-21T01:35:00;1009.8;;;14.2
79148;BMP280;68562;51.600;6.524;2023-11-21T01:40:00;1009.9;;;14.3
79148;BMP280;68562;51.600;6.524;2023-11-21T01:45:00;1009.9;;;14.2
79148;BMP280;68562;51.600;6.524;2023-11-21T01:50:00;1010.0;;;14.2
79148;BMP280;68562;51.600;6.524;2023-11-21T01:55:00;1009.9;;;14.2
79148;BMP280;68562;51.600;6.524;2023-11-21T02:00:01;1010.0;;;14.2
79148;BMP280;68562;51.600;6.524;2023-11-21T02:05:00;1010.0;;;14.1
79148;BMP280;68562;51.600;6.524;2023-11-21T02:10:00;1010.0;;;14.2
79148;BMP280;68562;51.600;6.524;2023-11-21T02:15:00;1010.0;;;14.1
79148;BMP280;68562;51.600;6.524;2023-11-21T02:20:00;1010.0;;;14.2
79148;BMP280;68562;51.600;6.524;2023-11-21T02:25:00;1010.0;;;14.2
79148;BMP280;68562;51.600;6.524;2023-11-21T02:30:00;1010.1;;;14.2
79148;BMP280;68562;51.600;6.524;2023-11-21T02:35:00;1010.2;;;14.1
79148;BMP280;68562;51.600;6.524;2023-11-21T02:40:00;1010.2;;;14.2
79148;BMP280;68562;51.600;6.524;2023-11-21T02:45:00;1010.2;;;14.2
79148;BMP280;68562;51.600;6.524;2023-11-21T02:50:00;1010.2;;;14.2
79148;BMP280;68562;51.600;6.524;2023-11-21T02:55:00;1010.2;;;14.3
79148;BMP280;68562;51.600;6.524;2023-11-21T03:00:00;1010.2;;;14.3
79148;BMP280;68562;51.600;6.524;2023-11-21T03:05:00;1010.3;;;14.3
79148;BMP280;68562;51.600;6.524;2023-11-21T03:10:00;1010.3;;;14.2
79148;BMP280;68562;51.600;6.524;2023-11-21T03:15:00;1010.4;;;14.2
79148;BMP280;68562;51.600;6.524;2023-11-21T03:20:00;1010.4;;;14.2
79148;BMP280;68562;51.600;6.524;2023-11-21T03:25:00;1010.5;;;14.1
79148;BMP280;68562;51.600;6.524;2023-11-21T03:30:01;1010.5;;;14.0
79148;BMP280;68562;51.600;6.524;2023-11-21T03:35:00;1010.6;;;14.0
79148;BMP280;68562;51.600;6.524;2023-11-21T03:40:00;1010.6;;;13.9
79148;BMP280;68562;51.600;6.524;2023-11-21T03:45:00;1010.6;;;14.0
79148;BMP280;68562;51.600;6.524;2023-11-21T03:50:00;1010.7;;;14.0
79148;BMP280;68562;51.600;6.524;2023-11-21T03:55:00;1010.7;;;14.0
79148;BMP280;68562;51.600;6.524;2023-11-21T04:00:00;1010.8;;;14.0
79148;BMP280;68562;51.600;6.524;2023-11-21T04:05:00;1010.8;;;14.0
79148;BMP280;68562;51.600;6.524;2023-11-21T04:10:00;1010.8;;;14.0
79148;BMP280;68562;51.600;6.524;2023-11-21T04:15:00;1010.7;;;14.0
79148;BMP280;68562;51.600;6.524;2023-11-21T04:20:00;1010.8;;;13.9
79148;BMP280;68562;51.600;6.524;2023-11-21T04:25:00;1010.8;;;14.0
79148;BMP280;68562;51.600;6.524;2023-11-21T04:30:00;1010.8;;;13.9
79148;BMP280;68562;51.600;6.524;2023-11-21T04:35:00;1010.9;;;13.9
79148;BMP280;68562;51.600;6.524;2023-11-21T04:40:00;1011.0;;;13.8
79148;BMP280;68562;51.600;6.524;2023-11-21T04:45:00;1011.0;;;13.9
79148;BMP280;68562;51.600;6.524;2023-11-21T04:50:00;1011.1;;;13.9
79148;BMP280;68562;51.600;6.524;2023-11-21T04:55:00;1011.1;;;13.9
79148;BMP280;68562;51.600;6.524;2023-11-21T05:00:00;1011.1;;;13.8
79148;BMP280;68562;51.600;6.524;2023-11-21T05:05:00;1011.2;;;13.9
79148;BMP280;68562;51.600;6.524;2023-11-21T05:10:00;1011.2;;;13.9
79148;BMP280;68562;51.600;6.524;2023-11-21T05:15:00;1011.3;;;14.0
79148;BMP280;68562;51.600;6.524;2023-11-21T05:20:00;1011.4;;;13.9
79148;BMP280;68562;51.600;6.524;2023-11-21T05:25:00;1011.5;;;13.9
79148;BMP280;68562;51.600;6.524;2023-11-21T05:30:01;1011.6;;;13.8
79148;BMP280;68562;51.600;6.524;2023-11-21T05:35:00;1011.7;;;13.9
79148;BMP280;68562;51.600;6.524;2023-11-21T05:40:00;1011.7;;;13.8
79148;BMP280;68562;51.600;6.524;2023-11-21T05:45:00;1011.8;;;13.8
79148;BMP280;68562;51.600;6.524;2023-11-21T05:50:00;1011.8;;;13.8
79148;BMP280;68562;51.600;6.524;2023-11-21T05:55:00;1011.9;;;13.9
79148;BMP280;68562;51.600;6.524;2023-11-21T06:00:00;1011.9;;;13.9
79148;BMP280;68562;51.600;6.524;2023-11-21T06:05:00;1012.0;;;13.9
79148;BMP280;68562;51.600;6.524;2023-11-21T06:10:00;1012.1;;;13.9
79148;BMP280;68562;51.600;6.524;2023-11-21T06:15:02;1012.1;;;13.9
79148;BMP280;68562;51.600;6.524;2023-11-21T06:20:00;1012.1;;;13.9
79148;BMP280;68562;51.600;6.524;2023-11-21T06:25:00;1012.2;;;13.9
79148;BMP280;68562;51.600;6.524;2023-11-21T06:30:00;1012.2;;;13.9
79148;BMP280;68562;51.600;6.524;2023-11-21T06:35:00;1012.3;;;14.0
79148;BMP280;68562;51.600;6.524;2023-11-21T06:40:00;1012.4;;;14.1
79148;BMP280;68562;51.600;6.524;2023-11-21T06:45:00;1012.5;;;14.2
79148;BMP280;68562;51.600;6.524;2023-11-21T06:50:00;1012.6;;;14.3
79148;BMP280;68562;51.600;6.524;2023-11-21T06:55:01;1012.7;;;14.3
79148;BMP280;68562;51.600;6.524;2023-11-21T07:00:00;1012.7;;;14.4
79148;BMP280;68562;51.600;6.524;2023-11-21T07:05:00;1012.8;;;14.4
79148;BMP280;68562;51.600;6.524;2023-11-21T07:10:00;1012.8;;;14.5
79148;BMP280;68562;51.600;6.524;2023-11-21T07:15:00;1012.9;;;14.5
79148;BMP280;68562;51.600;6.524;2023-11-21T07:20:00;1012.9;;;14.5
79148;BMP280;68562;51.600;6.524;2023-11-21T07:25:00;1012.9;;;14.4
79148;BMP280;68562;51.600;6.524;2023-11-21T07:30:00;1013.0;;;14.4
79148;BMP280;68562;51.600;6.524;2023-11-21T07:35:00;1013.1;;;14.4
79148;BMP280;68562;51.600;6.524;2023-11-21T07:40:00;1013.2;;;14.4
79148;BMP280;68562;51.600;6.524;2023-11-21T07:45:01;1013.3;;;14.3
79148;BMP280;68562;51.600;6.524;2023-11-21T07:50:00;1013.3;;;14.4
79148;BMP280;68562;51.600;6.524;2023-11-21T07:55:00;1013.5;;;14.4
79148;BMP280;68562;51.600;6.524;2023-11-21T08:00:00;1013.5;;;14.4
79148;BMP280;68562;51.600;6.524;2023-11-21T08:05:00;1013.6;;;14.3
79148;BMP280;68562;51.600;6.524;2023-11-21T08:10:00;1013.7;;;14.3
79148;BMP280;68562;51.600;6.524;2023-11-21T08:15:00;1013.7;;;14.2
79148;BMP280;68562;51.600;6.524;2023-11-21T08:20:00;1013.7;;;14.3
79148;BMP280;68562;51.600;6.524;2023-11-21T08:25:00;1013.8;;;14.2
79148;BMP280;68562;51.600;6.524;2023-11-21T08:30:00;1013.9;;;14.3
79148;BMP280;68562;51.600;6.524;2023-11-21T08:35:00;1014.0;;;14.3
79148;BMP280;68562;51.600;6.524;2023-11-21T08:40:00;1014.0;;;14.5
79148;BMP280;68562;51.600;6.524;2023-11-21T08:45:00;1014.0;;;14.5
79148;BMP280;68562;51.600;6.524;2023-11-21T08:50:00;1014.2;;;14.7
79148;BMP280;68562;51.600;6.524;2023-11-21T08:55:00;1014.2;;;14.6
79148;BMP280;68562;51.600;6.524;2023-11-21T09:00:00;1014.3;;;14.8
79148;BMP280;68562;51.600;6.524;2023-11-21T09:05:00;1014.3;;;14.8
79148;BMP280;68562;51.600;6.524;2023-11-21T09:10:00;1014.4;;;14.9
79148;BMP280;68562;51.600;6.524;2023-11-21T09:15:00;1014.4;;;15.0
79148;BMP280;68562;51.600;6.524;2023-11-21T09:20:00;1014.5;;;15.1
79148;BMP280;68562;51.600;6.524;2023-11-21T09:25:00;1014.5;;;15.2
79148;BMP280;68562;51.600;6.524;2023-11-21T09:30:00;1014.6;;;15.4
79148;BMP280;68562;51.600;6.524;2023-11-21T09:35:01;1014.7;;;15.4
79148;BMP280;68562;51.600;6.524;2023-11-21T09:40:00;1014.7;;;15.5
79148;BMP280;68562;51.600;6.524;2023-11-21T09:45:03;1014.8;;;15.6
79148;BMP280;68562;51.600;6.524;2023-11-21T09:50:01;1014.8;;;15.7
79148;BMP280;68562;51.600;6.524;2023-11-21T09:55:01;1014.9;;;15.6
79148;BMP280;68562;51.600;6.524;2023-11-21T10:00:01;1014.9;;;15.7
79148;BMP280;68562;51.600;6.524;2023-11-21T10:05:00;1015.0;;;15.8
79148;BMP280;68562;51.600;6.524;2023-11-21T10:10:00;1014.9;;;15.9
79148;BMP280;68562;51.600;6.524;2023-11-21T10:15:02;1015.1;;;16.0
79148;BMP280;68562;51.600;6.524;2023-11-21T10:20:00;1015.1;;;16.0
79148;BMP280;68562;51.600;6.524;2023-11-21T10:25:00;1015.1;;;16.1
79148;BMP280;68562;51.600;6.524;2023-11-21T10:30:00;1015.2;;;16.1
79148;BMP280;68562;51.600;6.524;2023-11-21T10:35:00;1015.2;;;16.3
79148;BMP280;68562;51.600;6.524;2023-11-21T10:40:00;1015.3;;;16.4
79148;BMP280;68562;51.600;6.524;2023-11-21T10:45:00;1015.4;;;16.6
79148;BMP280;68562;51.600;6.524;2023-11-21T10:50:00;1015.4;;;16.6
79148;BMP280;68562;51.600;6.524;2023-11-21T10:55:00;1015.4;;;16.7
79148;BMP280;68562;51.600;6.524;2023-11-21T11:00:00;1015.5;;;16.7
79148;BMP280;68562;51.600;6.524;2023-11-21T11:05:01;1015.5;;;16.8
79148;BMP280;68562;51.600;6.524;2023-11-21T11:10:00;1015.5;;;16.8
79148;BMP280;68562;51.600;6.524;2023-11-21T11:15:00;1015.4;;;16.9
79148;BMP280;68562;51.600;6.524;2023-11-21T11:20:00;1015.5;;;16.9
79148;BMP280;68562;51.600;6.524;2023-11-21T11:25:12;1015.7;;;17.0
79148;BMP280;68562;51.600;6.524;2023-11-21T11:30:06;1015.6;;;17.0
79148;BMP280;68562;51.600;6.524;2023-11-21T11:35:04;1015.5;;;17.1
79148;BMP280;68562;51.600;6.524;2023-11-21T11:40:00;1015.5;;;17.1
79148;BMP280;68562;51.600;6.524;2023-11-21T11:45:00;1015.6;;;17.2
79148;BMP280;68562;51.600;6.524;2023-11-21T11:50:03;1015.6;;;17.2
79148;BMP280;68562;51.600;6.524;2023-11-21T11:55:00;1015.7;;;17.3
79148;BMP280;68562;51.600;6.524;2023-11-21T12:00:07;1015.8;;;17.3
79148;BMP280;68562;51.600;6.524;2023-11-21T12:05:00;1015.9;;;17.5
79148;BMP280;68562;51.600;6.524;2023-11-21T12:10:01;1015.9;;;17.4
79148;BMP280;68562;51.600;6.524;2023-11-21T12:15:00;1016.1;;;17.5
79148;BMP280;68562;51.600;6.524;2023-11-21T12:20:02;1016.1;;;17.5
79148;BMP280;68562;51.600;6.524;2023-11-21T12:25:00;1016.1;;;17.5
79148;BMP280;68562;51.600;6.524;2023-11-21T12:30:00;1016.1;;;17.4
79148;BMP280;68562;51.600;6.524;2023-11-21T12:35:00;1016.2;;;17.5
79148;BMP280;68562;51.600;6.524;2023-11-21T12:40:00;1016.2;;;17.4
79148;BMP280;68562;51.600;6.524;2023-11-21T12:45:09;1016.2;;;17.5
79148;BMP280;68562;51.600;6.524;2023-11-21T12:50:02;1016.3;;;17.4
79148;BMP280;68562;51.600;6.524;2023-11-21T12:55:00;1016.3;;;17.4
79148;BMP280;68562;51.600;6.524;2023-11-21T13:00:02;1016.4;;;17.3
79148;BMP280;68562;51.600;6.524;2023-11-21T13:05:00;1016.4;;;17.2
79148;BMP280;68562;51.600;6.524;2023-11-21T13:10:00;1016.4;;;17.2
79148;BMP280;68562;51.600;6.524;2023-11-21T13:15:03;1016.6;;;17.2
79148;BMP280;68562;51.600;6.524;2023-11-21T13:20:00;1016.6;;;17.1
79148;BMP280;68562;51.600;6.524;2023-11-21T13:25:00;1016.6;;;17.1
79148;BMP280;68562;51.600;6.524;2023-11-21T13:30:00;1016.6;;;17.2
79148;BMP280;68562;51.600;6.524;2023-11-21T13:35:00;1016.6;;;17.1
79148;BMP280;68562;51.600;6.524;2023-11-21T13:40:00;1016.7;;;17.1
79148;BMP280;68562;51.600;6.524;2023-11-21T13:45:00;1016.8;;;17.0
79148;BMP280;68562;51.600;6.524;2023-11-21T13:50:00;1016.9;;;17.0
79148;BMP280;68562;51.600;6.524;2023-11-21T13:55:00;1016.9;;;16.9
79148;BMP280;68562;51.600;6.524;2023-11-21T14:00:00;1016.9;;;16.9
79148;BMP280;68562;51.600;6.524;2023-11-21T14:05:00;1017.0;;;16.8
79148;BMP280;68562;51.600;6.524;2023-11-21T14:10:00;1017.0;;;16.7
79148;BMP280;68562;51.600;6.524;2023-11-21T14:15:00;1017.1;;;16.6
79148;BMP280;68562;51.600;6.524;2023-11-21T14:20:00;1017.2;;;16.6
79148;BMP280;68562;51.600;6.524;2023-11-21T14:25:00;1017.2;;;16.5
79148;BMP280;68562;51.600;6.524;2023-11-21T14:30:00;1017.3;;;16.5
79148;BMP280;68562;51.600;6.524;2023-11-21T14:35:00;1017.4;;;16.5
79148;BMP280;68562;51.600;6.524;2023-11-21T14:40:00;1017.4;;;16.5
79148;BMP280;68562;51.600;6.524;2023-11-21T14:45:00;1017.6;;;16.4
79148;BMP280;68562;51.600;6.524;2023-11-21T14:50:00;1017.7;;;16.4
79148;BMP280;68562;51.600;6.524;2023-11-21T14:55:00;1017.7;;;16.3
79148;BMP280;68562;51.600;6.524;2023-11-21T15:00:00;1017.7;;;16.3
79148;BMP280;68562;51.600;6.524;2023-11-21T15:05:00;1017.9;;;16.2
79148;BMP280;68562;51.600;6.524;2023-11-21T15:10:00;1018.0;;;16.2
79148;BMP280;68562;51.600;6.524;2023-11-21T15:15:00;1018.1;;;16.1
79148;BMP280;68562;51.600;6.524;2023-11-21T15:20:00;1018.1;;;16.1
79148;BMP280;68562;51.600;6.524;2023-11-21T15:25:00;1018.2;;;15.9
79148;BMP280;68562;51.600;6.524;2023-11-21T15:30:00;1018.3;;;16.0
79148;BMP280;68562;51.600;6.524;2023-11-21T15:35:00;1018.4;;;15.9
79148;BMP280;68562;51.600;6.524;2023-11-21T15:40:00;1018.4;;;15.9
79148;BMP280;68562;51.600;6.524;2023-11-21T15:45:00;1018.5;;;15.8
79148;BMP280;68562;51.600;6.524;2023-11-21T15:50:00;1018.6;;;15.8
79148;BMP280;68562;51.600;6.524;2023-11-21T15:55:00;1018.7;;;15.7
79148;BMP280;68562;51.600;6.524;2023-11-21T16:00:00;1019.0;;;15.7
79148;BMP280;68562;51.600;6.524;2023-11-21T16:05:00;1019.0;;;15.6
79148;BMP280;68562;51.600;6.524;2023-11-21T16:10:00;1019.2;;;15.6
79148;BMP280;68562;51.600;6.524;2023-11-21T16:15:00;1019.3;;;15.4
79148;BMP280;68562;51.600;6.524;2023-11-21T16:20:00;1019.4;;;15.4
79148;BMP280;68562;51.600;6.524;2023-11-21T16:25:00;1019.5;;;15.3
79148;BMP280;68562;51.600;6.524;2023-11-21T16:30:00;1019.6;;;15.2
79148;BMP280;68562;51.600;6.524;2023-11-21T16:35:00;1019.7;;;15.1
79148;BMP280;68562;51.600;6.524;2023-11-21T16:40:00;1019.9;;;15.0
79148;BMP280;68562;51.600;6.524;2023-11-21T16:45:00;1020.0;;;14.9
79148;BMP280;68562;51.600;6.524;2023-11-21T16:50:00;1020.2;;;14.8
79148;BMP280;68562;51.600;6.524;2023-11-21T16:55:00;1020.3;;;14.8
79148;BMP280;68562;51.600;6.524;2023-11-21T17:00:00;1020.4;;;14.6
79148;BMP280;68562;51.600;6.524;2023-11-21T17:05:00;1020.5;;;14.6
79148;BMP280;68562;51.600;6.524;2023-11-21T17:10:00;1020.6;;;14.5
79148;BMP280;68562;51.600;6.524;2023-11-21T17:15:00;1020.7;;;14.5
79148;BMP280;68562;51.600;6.524;2023-11-21T17:20:00;1020.9;;;14.4
79148;BMP280;68562;51.600;6.524;2023-11-21T17:25:00;1021.0;;;14.4
79148;BMP280;68562;51.600;6.524;2023-11-21T17:30:00;1021.0;;;14.3
79148;BMP280;68562;51.600;6.524;2023-11-21T17:35:00;1021.1;;;14.3
79148;BMP280;68562;51.600;6.524;2023-11-21T17:40:00;1021.2;;;14.2
79148;BMP280;68562;51.600;6.524;2023-11-21T17:45:00;1021.3;;;14.3
79148;BMP280;68562;51.600;6.524;2023-11-21T17:50:00;1021.3;;;14.2
79148;BMP280;68562;51.600;6.524;2023-11-21T17:55:00;1021.4;;;14.2
79148;BMP280;68562;51.600;6.524;2023-11-21T18:00:00;1021.5;;;14.1
79148;BMP280;68562;51.600;6.524;2023-11-21T18:05:00;1021.6;;;14.1
79148;BMP280;68562;51.600;6.524;2023-11-21T18:10:00;1021.7;;;14.0
79148;BMP280;68562;51.600;6.524;2023-11-21T18:15:00;1021.7;;;14.0
79148;BMP280;68562;51.600;6.524;2023-11-21T18:20:00;1021.8;;;13.9
79148;BMP280;68562;51.600;6.524;2023-11-21T18:25:00;1021.9;;;13.9
79148;BMP280;68562;51.600;6.524;2023-11-21T18:30:00;1021.9;;;13.9
79148;BMP280;68562;51.600;6.524;2023-11-21T18:35:00;1022.0;;;13.9
79148;BMP280;68562;51.600;6.524;2023-11-21T18:40:00;1022.0;;;13.8
79148;BMP280;68562;51.600;6.524;2023-11-21T18:45:00;1022.1;;;13.9
79148;BMP280;68562;51.600;6.524;2023-11-21T18:50:00;1022.2;;;13.8
79148;BMP280;68562;51.600;6.524;2023-11-21T18:55:00;1022.2;;;13.8
79148;BMP280;68562;51.600;6.524;2023-11-21T19:00:00;1022.3;;;13.7
79148;BMP280;68562;51.600;6.524;2023-11-21T19:05:00;1022.4;;;13.8
79148;BMP280;68562;51.600;6.524;2023-11-21T19:10:00;1022.3;;;13.7
79148;BMP280;68562;51.600;6.524;2023-11-21T19:15:00;1022.3;;;13.8
79148;BMP280;68562;51.600;6.524;2023-11-21T19:20:00;1022.4;;;13.7
79148;BMP280;68562;51.600;6.524;2023-11-21T19:25:00;1022.4;;;13.7
79148;BMP280;68562;51.600;6.524;2023-11-21T19:30:00;1022.5;;;13.7
79148;BMP280;68562;51.600;6.524;2023-11-21T19:35:00;1022.6;;;13.7
79148;BMP280;68562;51.600;6.524;2023-11-21T19:40:00;1022.7;;;13.6
79148;BMP280;68562;51.600;6.524;2023-11-21T19:45:00;1022.9;;;13.6
79148;BMP280;68562;51.600;6.524;2023-11-21T19:50:00;1022.9;;;13.6
79148;BMP280;68562;51.600;6.524;2023-11-21T19:55:00;1023.0;;;13.6
79148;BMP280;68562;51.600;6.524;2023-11-21T20:00:00;1023.1;;;13.7
79148;BMP280;68562;51.600;6.524;2023-11-21T20:05:00;1023.2;;;13.7
79148;BMP280;68562;51.600;6.524;2023-11-21T20:10:00;1023.2;;;13.8
79148;BMP280;68562;51.600;6.524;2023-11-21T20:15:00;1023.3;;;13.8
79148;BMP280;68562;51.600;6.524;2023-11-21T20:20:00;1023.4;;;13.8
79148;BMP280;68562;51.600;6.524;2023-11-21T20:25:00;1023.5;;;13.8
79148;BMP280;68562;51.600;6.524;2023-11-21T20:30:00;1023.6;;;13.8
79148;BMP280;68562;51.600;6.524;2023-11-21T20:35:00;1023.6;;;13.7
79148;BMP280;68562;51.600;6.524;2023-11-21T20:40:01;1023.7;;;13.7
79148;BMP280;68562;51.600;6.524;2023-11-21T20:45:00;1023.7;;;13.7
79148;BMP280;68562;51.600;6.524;2023-11-21T20:50:00;1023.7;;;13.7
79148;BMP280;68562;51.600;6.524;2023-11-21T20:55:00;1023.7;;;13.6
79148;BMP280;68562;51.600;6.524;2023-11-21T21:00:00;1023.7;;;13.7
79148;BMP280;68562;51.600;6.524;2023-11-21T21:05:00;1023.7;;;13.6
79148;BMP280;68562;51.600;6.524;2023-11-21T21:10:00;1023.8;;;13.6
79148;BMP280;68562;51.600;6.524;2023-11-21T21:15:00;1023.8;;;13.5
79148;BMP280;68562;51.600;6.524;2023-11-21T21:20:00;1023.9;;;13.4
79148;BMP280;68562;51.600;6.524;2023-11-21T21:25:00;1024.0;;;13.3
79148;BMP280;68562;51.600;6.524;2023-11-21T21:30:00;1024.0;;;13.2
79148;BMP280;68562;51.600;6.524;2023-11-21T21:35:00;1024.2;;;13.1
79148;BMP280;68562;51.600;6.524;2023-11-21T21:40:00;1024.3;;;13.1
79148;BMP280;68562;51.600;6.524;2023-11-21T21:45:00;1024.3;;;13.1
79148;BMP280;68562;51.600;6.524;2023-11-21T21:50:00;1024.3;;;13.2
79148;BMP280;68562;51.600;6.524;2023-11-21T21:55:00;1024.5;;;13.1
79148;BMP280;68562;51.600;6.524;2023-11-21T22:00:00;1024.6;;;13.2
79148;BMP280;68562;51.600;6.524;2023-11-21T22:05:00;1024.6;;;13.1
79148;BMP280;68562;51.600;6.524;2023-11-21T22:10:00;1024.6;;;13.2
79148;BMP280;68562;51.600;6.524;2023-11-21T22:15:00;1024.7;;;13.1
79148;BMP280;68562;51.600;6.524;2023-11-21T22:20:00;1024.6;;;13.2
79148;BMP280;68562;51.600;6.524;2023-11-21T22:25:01;1024.6;;;13.1
79148;BMP280;68562;51.600;6.524;2023-11-21T22:30:00;1024.7;;;13.1
79148;BMP280;68562;51.600;6.524;2023-11-21T22:35:00;1024.7;;;12.9
79148;BMP280;68562;51.600;6.524;2023-11-21T22:40:00;1024.9;;;12.8
79148;BMP280;68562;51.600;6.524;2023-11-21T22:45:00;1025.1;;;12.7
79148;BMP280;68562;51.600;6.524;2023-11-21T22:50:00;1025.3;;;12.6
79148;BMP280;68562;51.600;6.524;2023-11-21T22:55:00;1025.2;;;12.5
79148;BMP280;68562;51.600;6.524;2023-11-21T23:00:01;1025.2;;;12.4
79148;BMP280;68562;51.600;6.524;2023-11-21T23:05:00;1025.3;;;12.3
79148;BMP280;68562;51.600;6.524;2023-11-21T23:10:00;1025.3;;;12.2
79148;BMP280;68562;51.600;6.524;2023-11-21T23:15:00;1025.4;;;12.2
79148;BMP280;68562;51.600;6.524;2023-11-21T23:20:00;1025.4;;;12.1
79148;BMP280;68562;51.600;6.524;2023-11-21T23:25:00;1025.4;;;12.1
79148;BMP280;68562;51.600;6.524;2023-11-21T23:30:00;1025.4;;;11.9
79148;BMP280;68562;51.600;6.524;2023-11-21T23:35:00;1025.4;;;11.9
79148;BMP280;68562;51.600;6.524;2023-11-21T23:40:00;1025.5;;;11.8
79148;BMP280;68562;51.600;6.524;2023-11-21T23:45:00;1025.5;;;11.8
79148;BMP280;68562;51.600;6.524;2023-11-21T23:50:00;1025.5;;;11.7
79148;BMP280;68562;51.600;6.524;2023-11-21T23:55:00;1025.5;;;11.6
